sensor_id;sensor_type;location;lat;lon;timestamp;temperature;humidity
1329;DHT22;658;48.820;9.354;2022-12-18T00:02:56;21.90;33.30
1329;DHT22;658;48.820;9.354;2022-12-18T00:06:57;21.90;33.30
1329;DHT22;658;48.820;9.354;2022-12-18T00:11:04;21.90;33.40
1329;DHT22;658;48.820;9.354;2022-12-18T00:15:05;21.90;33.40
1329;DHT22;658;48.820;9.354;2022-12-18T00:19:06;21.90;33.30
1329;DHT22;658;48.820;9.354;2022-12-18T00:23:07;21.90;33.40
1329;DHT22;658;48.820;9.354;2022-12-18T00:27:08;21.80;33.40
1329;DHT22;658;48.820;9.354;2022-12-18T00:31:11;21.80;33.40
1329;DHT22;658;48.820;9.354;2022-12-18T00:35:12;21.80;33.40
1329;DHT22;658;48.820;9.354;2022-12-18T00:39:13;21.80;33.40
1329;DHT22;658;48.820;9.354;2022-12-18T00:43:13;21.70;33.40
1329;DHT22;658;48.820;9.354;2022-12-18T00:47:14;21.80;33.50
1329;DHT22;658;48.820;9.354;2022-12-18T00:51:14;21.70;33.40
1329;DHT22;658;48.820;9.354;2022-12-18T00:55:15;21.70;33.50
1329;DHT22;658;48.820;9.354;2022-12-18T00:59:19;21.70;33.50
1329;DHT22;658;48.820;9.354;2022-12-18T01:03:20;21.70;33.50
1329;DHT22;658;48.820;9.354;2022-12-18T01:07:20;21.70;33.50
1329;DHT22;658;48.820;9.354;2022-12-18T01:11:21;21.70;33.50
1329;DHT22;658;48.820;9.354;2022-12-18T01:15:22;21.70;33.40
1329;DHT22;658;48.820;9.354;2022-12-18T01:19:23;21.70;33.40
1329;DHT22;658;48.820;9.354;2022-12-18T01:23:27;21.70;33.40
1329;DHT22;658;48.820;9.354;2022-12-18T01:27:27;21.70;33.40
1329;DHT22;658;48.820;9.354;2022-12-18T01:31:30;21.70;33.50
1329;DHT22;658;48.820;9.354;2022-12-18T01:35:31;21.60;33.50
1329;DHT22;658;48.820;9.354;2022-12-18T01:39:32;21.60;33.40
1329;DHT22;658;48.820;9.354;2022-12-18T01:43:44;21.60;33.40
1329;DHT22;658;48.820;9.354;2022-12-18T01:47:48;21.60;33.50
1329;DHT22;658;48.820;9.354;2022-12-18T01:51:49;21.60;33.50
1329;DHT22;658;48.820;9.354;2022-12-18T01:55:52;21.60;33.50
1329;DHT22;658;48.820;9.354;2022-12-18T01:59:57;21.50;33.40
1329;DHT22;658;48.820;9.354;2022-12-18T02:08:24;21.50;33.40
1329;DHT22;658;48.820;9.354;2022-12-18T02:17:14;21.40;33.40
1329;DHT22;658;48.820;9.354;2022-12-18T02:21:36;21.40;33.40
1329;DHT22;658;48.820;9.354;2022-12-18T02:30:29;21.40;33.40
1329;DHT22;658;48.820;9.354;2022-12-18T02:34:33;21.40;33.40
1329;DHT22;658;48.820;9.354;2022-12-18T02:38:36;21.40;33.30
1329;DHT22;658;48.820;9.354;2022-12-18T02:42:37;21.40;33.40
1329;DHT22;658;48.820;9.354;2022-12-18T02:46:41;21.30;33.40
1329;DHT22;658;48.820;9.354;2022-12-18T02:50:59;21.40;33.50
1329;DHT22;658;48.820;9.354;2022-12-18T02:59:30;21.30;33.40
1329;DHT22;658;48.820;9.354;2022-12-18T03:03:39;21.30;33.40
1329;DHT22;658;48.820;9.354;2022-12-18T03:07:58;21.30;33.40
1329;DHT22;658;48.820;9.354;2022-12-18T03:13:17;21.30;33.40
1329;DHT22;658;48.820;9.354;2022-12-18T03:16:45;21.40;33.40
1329;DHT22;658;48.820;9.354;2022-12-18T03:20:49;21.30;33.30
1329;DHT22;658;48.820;9.354;2022-12-18T03:24:53;21.40;33.30
1329;DHT22;658;48.820;9.354;2022-12-18T03:29:00;21.40;33.20
1329;DHT22;658;48.820;9.354;2022-12-18T03:33:18;21.40;33.20
1329;DHT22;658;48.820;9.354;2022-12-18T03:37:22;21.40;33.20
1329;DHT22;658;48.820;9.354;2022-12-18T03:41:37;21.40;33.20
1329;DHT22;658;48.820;9.354;2022-12-18T03:45:52;21.40;33.20
1329;DHT22;658;48.820;9.354;2022-12-18T03:54:04;21.50;33.10
1329;DHT22;658;48.820;9.354;2022-12-18T03:58:06;21.50;33.10
1329;DHT22;658;48.820;9.354;2022-12-18T04:02:08;21.50;33.10
1329;DHT22;658;48.820;9.354;2022-12-18T04:06:10;21.50;33.10
1329;DHT22;658;48.820;9.354;2022-12-18T04:10:12;21.50;33.10
1329;DHT22;658;48.820;9.354;2022-12-18T04:14:14;21.50;33.00
1329;DHT22;658;48.820;9.354;2022-12-18T04:18:15;21.60;33.00
1329;DHT22;658;48.820;9.354;2022-12-18T04:22:15;21.50;32.90
1329;DHT22;658;48.820;9.354;2022-12-18T04:26:16;21.50;33.00
1329;DHT22;658;48.820;9.354;2022-12-18T04:30:17;21.50;33.00
1329;DHT22;658;48.820;9.354;2022-12-18T04:34:17;21.60;33.00
1329;DHT22;658;48.820;9.354;2022-12-18T04:38:18;21.60;32.90
1329;DHT22;658;48.820;9.354;2022-12-18T04:42:18;21.50;32.80
1329;DHT22;658;48.820;9.354;2022-12-18T04:46:19;21.50;32.80
1329;DHT22;658;48.820;9.354;2022-12-18T04:50:19;21.50;32.80
1329;DHT22;658;48.820;9.354;2022-12-18T04:54:20;21.60;32.70
1329;DHT22;658;48.820;9.354;2022-12-18T04:58:21;21.50;32.70
1329;DHT22;658;48.820;9.354;2022-12-18T05:02:21;21.50;32.70
1329;DHT22;658;48.820;9.354;2022-12-18T05:06:22;21.50;32.70
1329;DHT22;658;48.820;9.354;2022-12-18T05:10:22;21.50;32.70
1329;DHT22;658;48.820;9.354;2022-12-18T05:14:23;21.50;32.70
1329;DHT22;658;48.820;9.354;2022-12-18T05:18:24;21.60;32.60
1329;DHT22;658;48.820;9.354;2022-12-18T05:22:24;21.50;32.60
1329;DHT22;658;48.820;9.354;2022-12-18T05:26:26;21.50;32.70
1329;DHT22;658;48.820;9.354;2022-12-18T05:30:26;21.50;32.70
1329;DHT22;658;48.820;9.354;2022-12-18T05:34:27;21.50;32.70
1329;DHT22;658;48.820;9.354;2022-12-18T05:38:29;21.50;32.70
1329;DHT22;658;48.820;9.354;2022-12-18T05:42:30;21.50;32.60
1329;DHT22;658;48.820;9.354;2022-12-18T05:46:31;21.50;32.70
1329;DHT22;658;48.820;9.354;2022-12-18T05:50:41;21.50;32.60
1329;DHT22;658;48.820;9.354;2022-12-18T05:54:41;21.50;32.60
1329;DHT22;658;48.820;9.354;2022-12-18T05:58:42;21.50;32.70
1329;DHT22;658;48.820;9.354;2022-12-18T06:02:46;21.50;32.60
1329;DHT22;658;48.820;9.354;2022-12-18T06:06:47;21.40;32.60
1329;DHT22;658;48.820;9.354;2022-12-18T06:10:51;21.50;32.70
1329;DHT22;658;48.820;9.354;2022-12-18T06:14:52;21.50;32.70
1329;DHT22;658;48.820;9.354;2022-12-18T06:18:59;21.40;32.50
1329;DHT22;658;48.820;9.354;2022-12-18T06:23:00;21.50;32.60
1329;DHT22;658;48.820;9.354;2022-12-18T06:27:01;21.50;32.60
1329;DHT22;658;48.820;9.354;2022-12-18T06:31:03;21.50;32.60
1329;DHT22;658;48.820;9.354;2022-12-18T06:35:04;21.50;32.50
1329;DHT22;658;48.820;9.354;2022-12-18T06:39:05;21.50;32.50
1329;DHT22;658;48.820;9.354;2022-12-18T06:43:06;21.50;32.50
1329;DHT22;658;48.820;9.354;2022-12-18T06:47:06;21.60;32.50
1329;DHT22;658;48.820;9.354;2022-12-18T06:51:07;21.60;32.40
1329;DHT22;658;48.820;9.354;2022-12-18T06:55:08;21.50;32.40
1329;DHT22;658;48.820;9.354;2022-12-18T06:59:08;21.50;32.30
1329;DHT22;658;48.820;9.354;2022-12-18T07:03:09;21.50;32.40
1329;DHT22;658;48.820;9.354;2022-12-18T07:07:10;21.50;32.40
1329;DHT22;658;48.820;9.354;2022-12-18T07:11:12;21.50;32.40
1329;DHT22;658;48.820;9.354;2022-12-18T07:15:12;21.50;32.40
1329;DHT22;658;48.820;9.354;2022-12-18T07:19:13;21.50;32.40
1329;DHT22;658;48.820;9.354;2022-12-18T07:23:13;21.50;32.40
1329;DHT22;658;48.820;9.354;2022-12-18T07:27:14;21.50;32.40
1329;DHT22;658;48.820;9.354;2022-12-18T07:31:20;21.50;32.30
1329;DHT22;658;48.820;9.354;2022-12-18T07:35:22;21.50;32.30
1329;DHT22;658;48.820;9.354;2022-12-18T07:39:22;21.50;32.30
1329;DHT22;658;48.820;9.354;2022-12-18T07:43:23;21.50;32.30
1329;DHT22;658;48.820;9.354;2022-12-18T07:47:23;21.50;32.40
1329;DHT22;658;48.820;9.354;2022-12-18T07:51:24;21.50;32.20
1329;DHT22;658;48.820;9.354;2022-12-18T07:55:24;21.50;32.20
1329;DHT22;658;48.820;9.354;2022-12-18T07:59:26;21.50;32.20
1329;DHT22;658;48.820;9.354;2022-12-18T08:03:27;21.50;32.20
1329;DHT22;658;48.820;9.354;2022-12-18T08:07:27;21.50;32.30
1329;DHT22;658;48.820;9.354;2022-12-18T08:11:28;21.50;32.20
1329;DHT22;658;48.820;9.354;2022-12-18T08:15:29;21.50;32.20
1329;DHT22;658;48.820;9.354;2022-12-18T08:19:30;21.50;32.30
1329;DHT22;658;48.820;9.354;2022-12-18T08:23:30;21.50;32.10
1329;DHT22;658;48.820;9.354;2022-12-18T08:27:31;21.50;32.20
1329;DHT22;658;48.820;9.354;2022-12-18T08:31:31;21.40;32.10
1329;DHT22;658;48.820;9.354;2022-12-18T08:35:35;21.50;32.10
1329;DHT22;658;48.820;9.354;2022-12-18T08:39:37;21.50;32.10
1329;DHT22;658;48.820;9.354;2022-12-18T08:43:37;21.50;32.10
1329;DHT22;658;48.820;9.354;2022-12-18T08:47:56;21.40;32.00
1329;DHT22;658;48.820;9.354;2022-12-18T08:51:57;21.40;32.00
1329;DHT22;658;48.820;9.354;2022-12-18T08:55:58;21.50;31.90
1329;DHT22;658;48.820;9.354;2022-12-18T08:59:58;21.60;31.90
1329;DHT22;658;48.820;9.354;2022-12-18T09:03:59;21.70;31.60
1329;DHT22;658;48.820;9.354;2022-12-18T09:08:00;21.90;31.60
1329;DHT22;658;48.820;9.354;2022-12-18T09:12:00;22.00;31.50
1329;DHT22;658;48.820;9.354;2022-12-18T09:16:03;22.20;31.50
1329;DHT22;658;48.820;9.354;2022-12-18T09:20:05;22.40;31.40
1329;DHT22;658;48.820;9.354;2022-12-18T09:24:06;22.40;31.30
1329;DHT22;658;48.820;9.354;2022-12-18T09:28:14;22.50;31.20
1329;DHT22;658;48.820;9.354;2022-12-18T09:32:15;22.60;31.10
1329;DHT22;658;48.820;9.354;2022-12-18T09:36:17;22.70;31.40
1329;DHT22;658;48.820;9.354;2022-12-18T09:40:22;22.80;30.80
1329;DHT22;658;48.820;9.354;2022-12-18T09:44:35;22.90;30.90
1329;DHT22;658;48.820;9.354;2022-12-18T09:48:47;23.00;30.90
1329;DHT22;658;48.820;9.354;2022-12-18T09:52:52;23.00;30.80
1329;DHT22;658;48.820;9.354;2022-12-18T09:56:54;23.10;30.80
1329;DHT22;658;48.820;9.354;2022-12-18T10:00:55;23.20;30.90
1329;DHT22;658;48.820;9.354;2022-12-18T10:05:06;23.30;30.80
1329;DHT22;658;48.820;9.354;2022-12-18T10:09:09;23.30;30.80
1329;DHT22;658;48.820;9.354;2022-12-18T10:13:21;23.40;30.90
1329;DHT22;658;48.820;9.354;2022-12-18T10:17:26;23.50;30.90
1329;DHT22;658;48.820;9.354;2022-12-18T10:21:34;23.60;30.80
1329;DHT22;658;48.820;9.354;2022-12-18T10:25:55;23.80;30.70
1329;DHT22;658;48.820;9.354;2022-12-18T10:29:58;23.90;30.40
1329;DHT22;658;48.820;9.354;2022-12-18T10:33:58;24.00;30.30
1329;DHT22;658;48.820;9.354;2022-12-18T10:42:20;24.20;30.00
1329;DHT22;658;48.820;9.354;2022-12-18T10:46:21;24.30;29.80
1329;DHT22;658;48.820;9.354;2022-12-18T10:50:31;24.50;29.60
1329;DHT22;658;48.820;9.354;2022-12-18T10:54:32;24.60;29.50
1329;DHT22;658;48.820;9.354;2022-12-18T10:58:56;24.70;29.30
1329;DHT22;658;48.820;9.354;2022-12-18T11:02:57;24.90;29.30
1329;DHT22;658;48.820;9.354;2022-12-18T11:07:00;25.00;29.20
1329;DHT22;658;48.820;9.354;2022-12-18T11:11:01;25.50;29.00
1329;DHT22;658;48.820;9.354;2022-12-18T11:15:02;26.50;27.80
1329;DHT22;658;48.820;9.354;2022-12-18T11:23:21;27.80;26.50
1329;DHT22;658;48.820;9.354;2022-12-18T11:27:25;28.20;26.00
1329;DHT22;658;48.820;9.354;2022-12-18T11:31:28;28.20;25.90
1329;DHT22;658;48.820;9.354;2022-12-18T11:39:39;28.50;25.50
1329;DHT22;658;48.820;9.354;2022-12-18T11:43:56;28.80;25.20
1329;DHT22;658;48.820;9.354;2022-12-18T11:48:36;29.00;24.90
1329;DHT22;658;48.820;9.354;2022-12-18T11:52:40;28.80;25.10
1329;DHT22;658;48.820;9.354;2022-12-18T11:56:49;29.10;24.90
1329;DHT22;658;48.820;9.354;2022-12-18T12:01:07;29.30;24.90
1329;DHT22;658;48.820;9.354;2022-12-18T12:05:44;29.30;25.00
1329;DHT22;658;48.820;9.354;2022-12-18T12:10:07;29.00;25.10
1329;DHT22;658;48.820;9.354;2022-12-18T12:18:44;29.20;25.30
1329;DHT22;658;48.820;9.354;2022-12-18T12:23:22;29.30;25.30
1329;DHT22;658;48.820;9.354;2022-12-18T12:27:55;29.30;25.40
1329;DHT22;658;48.820;9.354;2022-12-18T12:40:23;29.40;25.40
1329;DHT22;658;48.820;9.354;2022-12-18T12:44:32;29.20;25.60
1329;DHT22;658;48.820;9.354;2022-12-18T12:48:52;28.90;26.00
1329;DHT22;658;48.820;9.354;2022-12-18T12:52:55;28.70;26.10
1329;DHT22;658;48.820;9.354;2022-12-18T12:57:11;28.60;26.10
1329;DHT22;658;48.820;9.354;2022-12-18T13:01:32;28.40;26.20
1329;DHT22;658;48.820;9.354;2022-12-18T13:05:58;28.20;26.30
1329;DHT22;658;48.820;9.354;2022-12-18T13:10:26;28.00;26.50
1329;DHT22;658;48.820;9.354;2022-12-18T13:14:36;27.80;26.70
1329;DHT22;658;48.820;9.354;2022-12-18T13:18:37;27.60;26.90
1329;DHT22;658;48.820;9.354;2022-12-18T13:26:43;27.30;27.30
1329;DHT22;658;48.820;9.354;2022-12-18T13:39:31;27.30;27.70
1329;DHT22;658;48.820;9.354;2022-12-18T13:43:49;27.30;27.50
1329;DHT22;658;48.820;9.354;2022-12-18T13:47:50;27.40;27.50
1329;DHT22;658;48.820;9.354;2022-12-18T13:51:55;27.40;27.60
1329;DHT22;658;48.820;9.354;2022-12-18T13:55:56;27.30;27.60
1329;DHT22;658;48.820;9.354;2022-12-18T13:59:58;27.20;27.80
1329;DHT22;658;48.820;9.354;2022-12-18T14:04:19;27.10;27.90
1329;DHT22;658;48.820;9.354;2022-12-18T14:08:20;27.10;28.10
1329;DHT22;658;48.820;9.354;2022-12-18T14:12:34;27.00;28.10
1329;DHT22;658;48.820;9.354;2022-12-18T14:16:55;26.90;28.20
1329;DHT22;658;48.820;9.354;2022-12-18T14:21:01;26.80;28.40
1329;DHT22;658;48.820;9.354;2022-12-18T14:25:24;26.70;28.60
1329;DHT22;658;48.820;9.354;2022-12-18T14:29:27;26.50;28.70
1329;DHT22;658;48.820;9.354;2022-12-18T14:33:28;26.30;28.90
1329;DHT22;658;48.820;9.354;2022-12-18T14:37:29;26.20;29.10
1329;DHT22;658;48.820;9.354;2022-12-18T14:41:30;26.00;30.70
1329;DHT22;658;48.820;9.354;2022-12-18T14:45:44;25.70;33.00
1329;DHT22;658;48.820;9.354;2022-12-18T14:49:44;25.30;33.80
1329;DHT22;658;48.820;9.354;2022-12-18T14:53:47;25.10;35.00
1329;DHT22;658;48.820;9.354;2022-12-18T14:57:54;25.00;36.40
1329;DHT22;658;48.820;9.354;2022-12-18T15:02:23;24.80;37.00
1329;DHT22;658;48.820;9.354;2022-12-18T15:06:32;24.70;38.60
1329;DHT22;658;48.820;9.354;2022-12-18T15:10:34;24.60;38.70
1329;DHT22;658;48.820;9.354;2022-12-18T15:14:39;24.50;39.30
1329;DHT22;658;48.820;9.354;2022-12-18T15:18:42;24.40;40.10
1329;DHT22;658;48.820;9.354;2022-12-18T15:22:47;24.40;40.50
1329;DHT22;658;48.820;9.354;2022-12-18T15:26:47;24.30;41.00
1329;DHT22;658;48.820;9.354;2022-12-18T15:31:33;24.20;41.60
1329;DHT22;658;48.820;9.354;2022-12-18T15:35:38;24.20;42.50
1329;DHT22;658;48.820;9.354;2022-12-18T15:39:38;24.10;42.10
1329;DHT22;658;48.820;9.354;2022-12-18T15:43:39;24.00;42.10
1329;DHT22;658;48.820;9.354;2022-12-18T15:47:40;23.90;42.40
1329;DHT22;658;48.820;9.354;2022-12-18T15:51:51;23.90;42.70
1329;DHT22;658;48.820;9.354;2022-12-18T15:55:52;23.80;42.60
1329;DHT22;658;48.820;9.354;2022-12-18T16:00:12;23.70;42.70
1329;DHT22;658;48.820;9.354;2022-12-18T16:04:14;23.70;42.70
1329;DHT22;658;48.820;9.354;2022-12-18T16:08:15;23.60;43.20
1329;DHT22;658;48.820;9.354;2022-12-18T16:12:20;23.50;43.50
1329;DHT22;658;48.820;9.354;2022-12-18T16:16:21;23.50;43.60
1329;DHT22;658;48.820;9.354;2022-12-18T16:20:22;23.50;43.50
1329;DHT22;658;48.820;9.354;2022-12-18T16:24:25;23.40;43.80
1329;DHT22;658;48.820;9.354;2022-12-18T16:28:26;22.70;33.60
1329;DHT22;658;48.820;9.354;2022-12-18T16:32:27;22.10;36.80
1329;DHT22;658;48.820;9.354;2022-12-18T16:36:27;22.30;40.20
1329;DHT22;658;48.820;9.354;2022-12-18T16:40:31;22.60;41.10
1329;DHT22;658;48.820;9.354;2022-12-18T16:44:33;22.70;41.10
1329;DHT22;658;48.820;9.354;2022-12-18T16:48:34;22.80;41.60
1329;DHT22;658;48.820;9.354;2022-12-18T16:52:34;22.90;41.80
1329;DHT22;658;48.820;9.354;2022-12-18T16:56:35;22.90;42.70
1329;DHT22;658;48.820;9.354;2022-12-18T17:00:38;22.90;42.10
1329;DHT22;658;48.820;9.354;2022-12-18T17:04:41;22.90;42.50
1329;DHT22;658;48.820;9.354;2022-12-18T17:08:41;22.90;41.60
1329;DHT22;658;48.820;9.354;2022-12-18T17:12:42;22.80;41.60
1329;DHT22;658;48.820;9.354;2022-12-18T17:16:43;22.80;42.70
1329;DHT22;658;48.820;9.354;2022-12-18T17:20:43;22.80;43.50
1329;DHT22;658;48.820;9.354;2022-12-18T17:24:45;22.80;43.00
1329;DHT22;658;48.820;9.354;2022-12-18T17:28:46;22.80;42.70
1329;DHT22;658;48.820;9.354;2022-12-18T17:32:47;22.70;42.50
1329;DHT22;658;48.820;9.354;2022-12-18T17:36:48;22.60;43.50
1329;DHT22;658;48.820;9.354;2022-12-18T17:40:48;22.70;43.80
1329;DHT22;658;48.820;9.354;2022-12-18T17:44:49;22.70;43.70
1329;DHT22;658;48.820;9.354;2022-12-18T17:48:50;22.70;42.70
1329;DHT22;658;48.820;9.354;2022-12-18T17:52:54;22.60;43.20
1329;DHT22;658;48.820;9.354;2022-12-18T17:56:55;22.70;44.10
1329;DHT22;658;48.820;9.354;2022-12-18T18:00:56;22.70;44.00
1329;DHT22;658;48.820;9.354;2022-12-18T18:04:56;22.70;43.50
1329;DHT22;658;48.820;9.354;2022-12-18T18:08:57;22.60;43.50
1329;DHT22;658;48.820;9.354;2022-12-18T18:12:58;22.70;43.00
1329;DHT22;658;48.820;9.354;2022-12-18T18:17:17;22.70;43.40
1329;DHT22;658;48.820;9.354;2022-12-18T18:21:18;22.60;43.20
1329;DHT22;658;48.820;9.354;2022-12-18T18:25:18;22.60;42.90
1329;DHT22;658;48.820;9.354;2022-12-18T18:29:21;22.60;43.40
1329;DHT22;658;48.820;9.354;2022-12-18T18:33:22;22.60;43.50
1329;DHT22;658;48.820;9.354;2022-12-18T18:37:23;22.60;43.30
1329;DHT22;658;48.820;9.354;2022-12-18T18:41:23;22.60;43.20
1329;DHT22;658;48.820;9.354;2022-12-18T18:45:24;22.60;43.40
1329;DHT22;658;48.820;9.354;2022-12-18T18:49:26;22.60;43.30
1329;DHT22;658;48.820;9.354;2022-12-18T18:53:27;22.70;42.30
1329;DHT22;658;48.820;9.354;2022-12-18T18:57:27;22.80;40.80
1329;DHT22;658;48.820;9.354;2022-12-18T19:01:28;22.80;40.60
1329;DHT22;658;48.820;9.354;2022-12-18T19:05:30;22.90;42.10
1329;DHT22;658;48.820;9.354;2022-12-18T19:09:31;22.90;41.40
1329;DHT22;658;48.820;9.354;2022-12-18T19:13:32;23.00;40.70
1329;DHT22;658;48.820;9.354;2022-12-18T19:17:33;23.00;40.80
1329;DHT22;658;48.820;9.354;2022-12-18T19:21:35;23.00;41.00
1329;DHT22;658;48.820;9.354;2022-12-18T19:25:38;23.00;40.80
1329;DHT22;658;48.820;9.354;2022-12-18T19:29:39;23.00;40.90
1329;DHT22;658;48.820;9.354;2022-12-18T19:33:41;23.00;40.50
1329;DHT22;658;48.820;9.354;2022-12-18T19:37:42;23.00;40.50
1329;DHT22;658;48.820;9.354;2022-12-18T19:41:43;23.00;40.40
1329;DHT22;658;48.820;9.354;2022-12-18T19:45:44;23.00;40.80
1329;DHT22;658;48.820;9.354;2022-12-18T19:49:45;23.10;40.40
1329;DHT22;658;48.820;9.354;2022-12-18T19:53:45;23.10;39.80
1329;DHT22;658;48.820;9.354;2022-12-18T19:57:46;23.00;40.30
1329;DHT22;658;48.820;9.354;2022-12-18T20:01:47;23.00;40.00
1329;DHT22;658;48.820;9.354;2022-12-18T20:05:49;23.00;40.00
1329;DHT22;658;48.820;9.354;2022-12-18T20:09:50;23.00;39.80
1329;DHT22;658;48.820;9.354;2022-12-18T20:13:50;23.10;39.50
1329;DHT22;658;48.820;9.354;2022-12-18T20:17:51;23.00;39.90
1329;DHT22;658;48.820;9.354;2022-12-18T20:21:52;23.00;39.40
1329;DHT22;658;48.820;9.354;2022-12-18T20:25:53;23.10;39.50
1329;DHT22;658;48.820;9.354;2022-12-18T20:29:54;23.10;39.10
1329;DHT22;658;48.820;9.354;2022-12-18T20:33:55;23.20;38.90
1329;DHT22;658;48.820;9.354;2022-12-18T20:37:56;23.20;38.60
1329;DHT22;658;48.820;9.354;2022-12-18T20:41:57;23.20;38.60
1329;DHT22;658;48.820;9.354;2022-12-18T20:46:06;23.20;38.70
1329;DHT22;658;48.820;9.354;2022-12-18T20:50:07;23.10;38.90
1329;DHT22;658;48.820;9.354;2022-12-18T20:54:07;23.10;39.00
1329;DHT22;658;48.820;9.354;2022-12-18T20:58:08;23.10;38.90
1329;DHT22;658;48.820;9.354;2022-12-18T21:02:11;23.10;38.90
1329;DHT22;658;48.820;9.354;2022-12-18T21:06:14;23.10;39.00
1329;DHT22;658;48.820;9.354;2022-12-18T21:10:15;23.10;39.00
1329;DHT22;658;48.820;9.354;2022-12-18T21:14:21;23.10;39.00
1329;DHT22;658;48.820;9.354;2022-12-18T21:18:22;23.10;38.80
1329;DHT22;658;48.820;9.354;2022-12-18T21:22:23;23.10;38.80
1329;DHT22;658;48.820;9.354;2022-12-18T21:26:25;23.10;38.50
1329;DHT22;658;48.820;9.354;2022-12-18T21:30:26;23.10;38.50
1329;DHT22;658;48.820;9.354;2022-12-18T21:34:29;23.20;38.50
1329;DHT22;658;48.820;9.354;2022-12-18T21:38:30;23.10;38.20
1329;DHT22;658;48.820;9.354;2022-12-18T21:42:30;23.10;38.30
1329;DHT22;658;48.820;9.354;2022-12-18T21:46:50;23.10;38.00
1329;DHT22;658;48.820;9.354;2022-12-18T21:50:51;23.20;38.00
1329;DHT22;658;48.820;9.354;2022-12-18T21:54:51;23.20;37.70
1329;DHT22;658;48.820;9.354;2022-12-18T21:58:52;23.10;38.00
1329;DHT22;658;48.820;9.354;2022-12-18T22:02:52;23.10;37.90
1329;DHT22;658;48.820;9.354;2022-12-18T22:06:53;23.10;37.80
1329;DHT22;658;48.820;9.354;2022-12-18T22:10:54;23.10;37.70
1329;DHT22;658;48.820;9.354;2022-12-18T22:14:54;23.00;37.20
1329;DHT22;658;48.820;9.354;2022-12-18T22:18:55;22.90;37.80
1329;DHT22;658;48.820;9.354;2022-12-18T22:22:56;22.80;37.10
1329;DHT22;658;48.820;9.354;2022-12-18T22:26:57;22.80;37.20
1329;DHT22;658;48.820;9.354;2022-12-18T22:30:59;22.70;37.20
1329;DHT22;658;48.820;9.354;2022-12-18T22:35:01;22.70;37.10
1329;DHT22;658;48.820;9.354;2022-12-18T22:39:05;22.70;37.00
1329;DHT22;658;48.820;9.354;2022-12-18T22:43:06;22.60;36.70
1329;DHT22;658;48.820;9.354;2022-12-18T22:47:08;22.60;36.80
1329;DHT22;658;48.820;9.354;2022-12-18T22:51:19;22.50;36.60
1329;DHT22;658;48.820;9.354;2022-12-18T22:55:20;22.50;36.60
1329;DHT22;658;48.820;9.354;2022-12-18T22:59:21;22.50;36.70
1329;DHT22;658;48.820;9.354;2022-12-18T23:03:22;22.50;36.60
1329;DHT22;658;48.820;9.354;2022-12-18T23:07:23;22.50;36.70
1329;DHT22;658;48.820;9.354;2022-12-18T23:11:24;22.40;36.60
1329;DHT22;658;48.820;9.354;2022-12-18T23:15:25;22.40;36.50
1329;DHT22;658;48.820;9.354;2022-12-18T23:19:26;22.30;36.60
1329;DHT22;658;48.820;9.354;2022-12-18T23:23:26;22.30;36.60
1329;DHT22;658;48.820;9.354;2022-12-18T23:27:27;22.30;36.50
1329;DHT22;658;48.820;9.354;2022-12-18T23:31:30;22.30;36.50
1329;DHT22;658;48.820;9.354;2022-12-18T23:35:30;22.30;36.60
1329;DHT22;658;48.820;9.354;2022-12-18T23:39:31;22.30;36.70
1329;DHT22;658;48.820;9.354;2022-12-18T23:43:32;22.30;36.60
1329;DHT22;658;48.820;9.354;2022-12-18T23:47:32;22.20;36.50
1329;DHT22;658;48.820;9.354;2022-12-18T23:51:33;22.20;36.50
1329;DHT22;658;48.820;9.354;2022-12-18T23:55:41;22.20;36.50
1329;DHT22;658;48.820;9.354;2022-12-18T23:59:43;22.20;36.40
